sensor_id;sensor_type;location;lat;lon;timestamp;pressure;altitude;pressure_sealevel;temperature;humidity
72370;BME280;60343;-32.030;115.880;2023-04-26T00:01:45;101700.47;;;17.75;83.21
72370;BME280;60343;-32.030;115.880;2023-04-26T00:04:19;101694.22;;;17.74;82.03
72370;BME280;60343;-32.030;115.880;2023-04-26T00:06:59;101703.44;;;17.80;82.08
72370;BME280;60343;-32.030;115.880;2023-04-26T00:09:36;101697.69;;;17.96;82.58
72370;BME280;60343;-32.030;115.880;2023-04-26T00:12:11;101702.41;;;18.22;81.57
72370;BME280;60343;-32.030;115.880;2023-04-26T00:14:45;101691.06;;;18.46;78.33
72370;BME280;60343;-32.030;115.880;2023-04-26T00:17:25;101701.91;;;19.00;79.63
72370;BME280;60343;-32.030;115.880;2023-04-26T00:20:00;101704.66;;;19.26;75.03
72370;BME280;60343;-32.030;115.880;2023-04-26T00:22:36;101704.28;;;19.76;75.91
72370;BME280;60343;-32.030;115.880;2023-04-26T00:25:11;101699.44;;;19.78;71.77
72370;BME280;60343;-32.030;115.880;2023-04-26T00:27:45;101709.44;;;19.97;72.61
72370;BME280;60343;-32.030;115.880;2023-04-26T00:30:20;101714.25;;;20.08;72.37
72370;BME280;60343;-32.030;115.880;2023-04-26T00:33:00;101708.84;;;20.01;72.89
72370;BME280;60343;-32.030;115.880;2023-04-26T00:35:35;101714.19;;;20.28;73.91
72370;BME280;60343;-32.030;115.880;2023-04-26T00:38:10;101717.34;;;20.31;71.69
72370;BME280;60343;-32.030;115.880;2023-04-26T00:40:45;101719.44;;;20.36;72.05
72370;BME280;60343;-32.030;115.880;2023-04-26T00:43:20;101721.34;;;20.02;72.74
72370;BME280;60343;-32.030;115.880;2023-04-26T00:45:54;101723.63;;;20.32;72.32
72370;BME280;60343;-32.030;115.880;2023-04-26T00:48:35;101724.88;;;20.80;71.62
72370;BME280;60343;-32.030;115.880;2023-04-26T00:51:10;101735.38;;;20.77;70.10
72370;BME280;60343;-32.030;115.880;2023-04-26T00:53:45;101742.47;;;20.07;71.29
72370;BME280;60343;-32.030;115.880;2023-04-26T00:56:20;101746.28;;;19.60;73.98
72370;BME280;60343;-32.030;115.880;2023-04-26T00:58:55;101756.88;;;19.28;76.29
72370;BME280;60343;-32.030;115.880;2023-04-26T01:01:30;101760.13;;;18.91;76.19
72370;BME280;60343;-32.030;115.880;2023-04-26T01:04:10;101765.41;;;18.58;77.66
72370;BME280;60343;-32.030;115.880;2023-04-26T01:06:45;101758.59;;;18.41;78.27
72370;BME280;60343;-32.030;115.880;2023-04-26T01:09:20;101756.06;;;19.41;78.40
72370;BME280;60343;-32.030;115.880;2023-04-26T01:11:55;101762.69;;;20.57;72.77
72370;BME280;60343;-32.030;115.880;2023-04-26T01:14:30;101761.44;;;21.67;70.19
72370;BME280;60343;-32.030;115.880;2023-04-26T01:17:05;101764.22;;;22.46;65.76
72370;BME280;60343;-32.030;115.880;2023-04-26T01:19:52;101753.03;;;22.73;63.17
72370;BME280;60343;-32.030;115.880;2023-04-26T01:25:08;101761.03;;;22.67;61.74
72370;BME280;60343;-32.030;115.880;2023-04-26T01:27:44;101764.56;;;22.13;64.91
72370;BME280;60343;-32.030;115.880;2023-04-26T01:30:19;101767.22;;;21.52;64.07
72370;BME280;60343;-32.030;115.880;2023-04-26T01:32:53;101770.41;;;21.05;65.80
72370;BME280;60343;-32.030;115.880;2023-04-26T01:35:28;101769.09;;;20.69;66.92
72370;BME280;60343;-32.030;115.880;2023-04-26T01:38:02;101771.06;;;20.42;69.74
72370;BME280;60343;-32.030;115.880;2023-04-26T01:40:43;101774.03;;;20.34;71.00
72370;BME280;60343;-32.030;115.880;2023-04-26T01:43:18;101770.47;;;20.40;70.48
72370;BME280;60343;-32.030;115.880;2023-04-26T01:45:53;101784.06;;;20.40;68.47
72370;BME280;60343;-32.030;115.880;2023-04-26T01:48:27;101780.19;;;20.74;67.11
72370;BME280;60343;-32.030;115.880;2023-04-26T01:51:02;101787.97;;;21.15;64.21
72370;BME280;60343;-32.030;115.880;2023-04-26T01:53:36;101788.78;;;21.22;65.26
72370;BME280;60343;-32.030;115.880;2023-04-26T01:56:17;101789.84;;;21.53;65.66
72370;BME280;60343;-32.030;115.880;2023-04-26T01:58:52;101795.00;;;21.61;65.55
72370;BME280;60343;-32.030;115.880;2023-04-26T02:01:27;101790.00;;;21.58;65.84
72370;BME280;60343;-32.030;115.880;2023-04-26T02:04:02;101790.75;;;21.40;67.08
72370;BME280;60343;-32.030;115.880;2023-04-26T02:06:36;101796.38;;;21.07;68.26
72370;BME280;60343;-32.030;115.880;2023-04-26T02:09:11;101796.03;;;20.84;69.67
72370;BME280;60343;-32.030;115.880;2023-04-26T02:11:51;101796.72;;;20.73;68.03
72370;BME280;60343;-32.030;115.880;2023-04-26T02:14:26;101797.13;;;20.76;67.98
72370;BME280;60343;-32.030;115.880;2023-04-26T02:17:00;101797.94;;;20.83;69.54
72370;BME280;60343;-32.030;115.880;2023-04-26T02:19:35;101797.59;;;21.11;65.64
72370;BME280;60343;-32.030;115.880;2023-04-26T02:22:09;101796.97;;;21.09;66.72
72370;BME280;60343;-32.030;115.880;2023-04-26T02:24:44;101795.47;;;21.20;63.35
72370;BME280;60343;-32.030;115.880;2023-04-26T02:27:24;101810.19;;;21.12;64.95
72370;BME280;60343;-32.030;115.880;2023-04-26T02:29:59;101816.03;;;21.22;64.78
72370;BME280;60343;-32.030;115.880;2023-04-26T02:32:33;101818.19;;;20.94;65.73
72370;BME280;60343;-32.030;115.880;2023-04-26T02:35:08;101807.00;;;20.71;66.83
72370;BME280;60343;-32.030;115.880;2023-04-26T02:37:43;101808.09;;;20.50;67.67
72370;BME280;60343;-32.030;115.880;2023-04-26T02:40:19;101808.09;;;20.50;67.36
72370;BME280;60343;-32.030;115.880;2023-04-26T02:42:59;101804.59;;;20.94;65.64
72370;BME280;60343;-32.030;115.880;2023-04-26T02:45:33;101813.03;;;21.62;62.72
72370;BME280;60343;-32.030;115.880;2023-04-26T02:48:08;101805.44;;;22.20;61.45
72370;BME280;60343;-32.030;115.880;2023-04-26T02:50:42;101796.75;;;22.66;59.14
72370;BME280;60343;-32.030;115.880;2023-04-26T02:53:17;101800.25;;;22.91;57.84
72370;BME280;60343;-32.030;115.880;2023-04-26T02:55:51;101789.56;;;23.20;58.40
72370;BME280;60343;-32.030;115.880;2023-04-26T02:58:32;101783.31;;;23.31;57.68
72370;BME280;60343;-32.030;115.880;2023-04-26T03:01:07;101783.31;;;23.31;58.25
72370;BME280;60343;-32.030;115.880;2023-04-26T03:03:42;101785.91;;;23.56;56.53
72370;BME280;60343;-32.030;115.880;2023-04-26T03:06:16;101787.53;;;23.98;55.77
72370;BME280;60343;-32.030;115.880;2023-04-26T03:08:51;101785.56;;;23.75;55.05
72370;BME280;60343;-32.030;115.880;2023-04-26T03:11:25;101789.81;;;23.18;56.70
72370;BME280;60343;-32.030;115.880;2023-04-26T03:14:05;101781.91;;;22.80;55.88
72370;BME280;60343;-32.030;115.880;2023-04-26T03:16:43;101780.22;;;22.97;57.23
72370;BME280;60343;-32.030;115.880;2023-04-26T03:19:18;101775.72;;;23.33;55.95
72370;BME280;60343;-32.030;115.880;2023-04-26T03:21:53;101776.91;;;23.37;54.69
72370;BME280;60343;-32.030;115.880;2023-04-26T03:24:29;101766.41;;;23.52;54.38
72370;BME280;60343;-32.030;115.880;2023-04-26T03:27:03;101770.97;;;23.81;53.43
72370;BME280;60343;-32.030;115.880;2023-04-26T03:29:43;101759.44;;;23.68;52.60
72370;BME280;60343;-32.030;115.880;2023-04-26T03:32:18;101750.63;;;24.01;50.82
72370;BME280;60343;-32.030;115.880;2023-04-26T03:34:52;101756.22;;;23.82;49.72
72370;BME280;60343;-32.030;115.880;2023-04-26T03:37:27;101753.25;;;23.95;50.31
72370;BME280;60343;-32.030;115.880;2023-04-26T03:40:01;101752.88;;;24.15;51.27
72370;BME280;60343;-32.030;115.880;2023-04-26T03:42:37;101758.50;;;24.32;49.22
72370;BME280;60343;-32.030;115.880;2023-04-26T03:45:17;101761.00;;;24.22;49.82
72370;BME280;60343;-32.030;115.880;2023-04-26T03:47:53;101762.19;;;24.14;49.31
72370;BME280;60343;-32.030;115.880;2023-04-26T03:50:27;101763.72;;;23.99;50.39
72370;BME280;60343;-32.030;115.880;2023-04-26T03:53:02;101760.63;;;24.07;49.04
72370;BME280;60343;-32.030;115.880;2023-04-26T03:55:37;101764.19;;;24.07;47.55
72370;BME280;60343;-32.030;115.880;2023-04-26T03:58:13;101752.53;;;24.12;47.52
72370;BME280;60343;-32.030;115.880;2023-04-26T04:00:56;101746.22;;;24.11;47.61
72370;BME280;60343;-32.030;115.880;2023-04-26T04:03:31;101745.06;;;24.07;49.31
72370;BME280;60343;-32.030;115.880;2023-04-26T04:06:06;101751.00;;;24.04;48.90
72370;BME280;60343;-32.030;115.880;2023-04-26T04:08:40;101743.53;;;24.23;47.01
72370;BME280;60343;-32.030;115.880;2023-04-26T04:11:15;101747.31;;;24.33;48.44
72370;BME280;60343;-32.030;115.880;2023-04-26T04:13:49;101738.00;;;24.46;45.88
72370;BME280;60343;-32.030;115.880;2023-04-26T04:16:29;101750.41;;;24.37;45.80
72370;BME280;60343;-32.030;115.880;2023-04-26T04:19:04;101751.84;;;24.28;46.76
72370;BME280;60343;-32.030;115.880;2023-04-26T04:21:38;101750.06;;;23.99;47.96
72370;BME280;60343;-32.030;115.880;2023-04-26T04:24:15;101745.41;;;24.11;49.11
72370;BME280;60343;-32.030;115.880;2023-04-26T04:26:50;101746.22;;;24.11;48.96
72370;BME280;60343;-32.030;115.880;2023-04-26T04:29:24;101739.13;;;23.99;49.96
72370;BME280;60343;-32.030;115.880;2023-04-26T04:32:05;101746.50;;;23.98;51.33
72370;BME280;60343;-32.030;115.880;2023-04-26T04:34:40;101754.69;;;24.33;49.00
72370;BME280;60343;-32.030;115.880;2023-04-26T04:37:14;101745.66;;;24.32;49.98
72370;BME280;60343;-32.030;115.880;2023-04-26T04:39:49;101742.06;;;23.85;49.72
72370;BME280;60343;-32.030;115.880;2023-04-26T04:42:24;101738.50;;;23.62;50.97
72370;BME280;60343;-32.030;115.880;2023-04-26T04:44:59;101734.06;;;23.49;50.75
72370;BME280;60343;-32.030;115.880;2023-04-26T04:47:39;101725.56;;;23.69;50.70
72370;BME280;60343;-32.030;115.880;2023-04-26T04:50:14;101726.03;;;23.89;50.19
72370;BME280;60343;-32.030;115.880;2023-04-26T04:52:48;101733.63;;;23.64;51.97
72370;BME280;60343;-32.030;115.880;2023-04-26T04:55:23;101734.13;;;23.31;52.92
72370;BME280;60343;-32.030;115.880;2023-04-26T04:57:57;101725.13;;;23.42;52.92
72370;BME280;60343;-32.030;115.880;2023-04-26T05:00:32;101721.13;;;23.79;52.78
72370;BME280;60343;-32.030;115.880;2023-04-26T05:03:13;101721.16;;;24.14;53.08
72370;BME280;60343;-32.030;115.880;2023-04-26T05:05:48;101727.22;;;24.28;51.38
72370;BME280;60343;-32.030;115.880;2023-04-26T05:08:23;101714.63;;;23.92;52.23
72370;BME280;60343;-32.030;115.880;2023-04-26T05:10:57;101723.97;;;23.49;54.80
72370;BME280;60343;-32.030;115.880;2023-04-26T05:13:32;101731.97;;;22.91;56.21
72370;BME280;60343;-32.030;115.880;2023-04-26T05:16:06;101728.97;;;22.63;57.11
72370;BME280;60343;-32.030;115.880;2023-04-26T05:18:46;101734.44;;;22.45;57.54
72370;BME280;60343;-32.030;115.880;2023-04-26T05:21:21;101730.34;;;22.36;57.88
72370;BME280;60343;-32.030;115.880;2023-04-26T05:23:56;101740.19;;;22.18;58.10
72370;BME280;60343;-32.030;115.880;2023-04-26T05:26:30;101740.97;;;22.25;57.64
72370;BME280;60343;-32.030;115.880;2023-04-26T05:29:05;101737.84;;;22.22;57.79
72370;BME280;60343;-32.030;115.880;2023-04-26T05:31:39;101739.16;;;22.38;57.04
72370;BME280;60343;-32.030;115.880;2023-04-26T05:34:19;101738.84;;;22.46;57.62
72370;BME280;60343;-32.030;115.880;2023-04-26T05:36:54;101732.13;;;22.96;55.87
72370;BME280;60343;-32.030;115.880;2023-04-26T05:39:28;101738.19;;;23.40;54.24
72370;BME280;60343;-32.030;115.880;2023-04-26T05:42:03;101732.06;;;23.56;53.63
72370;BME280;60343;-32.030;115.880;2023-04-26T05:44:38;101732.19;;;23.84;51.96
72370;BME280;60343;-32.030;115.880;2023-04-26T05:47:12;101729.69;;;23.94;51.91
72370;BME280;60343;-32.030;115.880;2023-04-26T05:49:52;101735.28;;;24.11;50.23
72370;BME280;60343;-32.030;115.880;2023-04-26T05:52:27;101728.16;;;24.33;47.57
72370;BME280;60343;-32.030;115.880;2023-04-26T05:55:01;101740.19;;;24.21;48.96
72370;BME280;60343;-32.030;115.880;2023-04-26T05:57:36;101739.84;;;24.29;48.99
72370;BME280;60343;-32.030;115.880;2023-04-26T06:00:12;101734.94;;;23.84;51.05
72370;BME280;60343;-32.030;115.880;2023-04-26T06:02:49;101743.50;;;24.00;50.60
72370;BME280;60343;-32.030;115.880;2023-04-26T06:05:29;101733.63;;;23.64;52.58
72370;BME280;60343;-32.030;115.880;2023-04-26T06:08:04;101731.13;;;23.85;52.28
72370;BME280;60343;-32.030;115.880;2023-04-26T06:10:39;101734.69;;;24.32;49.11
72370;BME280;60343;-32.030;115.880;2023-04-26T06:13:13;101733.03;;;24.71;48.43
72370;BME280;60343;-32.030;115.880;2023-04-26T06:15:48;101735.53;;;24.33;49.13
72370;BME280;60343;-32.030;115.880;2023-04-26T06:18:22;101739.31;;;23.62;50.54
72370;BME280;60343;-32.030;115.880;2023-04-26T06:21:02;101739.22;;;23.69;50.62
72370;BME280;60343;-32.030;115.880;2023-04-26T06:23:37;101741.13;;;23.91;50.65
72370;BME280;60343;-32.030;115.880;2023-04-26T06:26:12;101734.94;;;23.84;50.83
72370;BME280;60343;-32.030;115.880;2023-04-26T06:28:46;101743.75;;;23.86;50.55
72370;BME280;60343;-32.030;115.880;2023-04-26T06:31:21;101747.19;;;23.59;51.66
72370;BME280;60343;-32.030;115.880;2023-04-26T06:33:56;101749.78;;;23.54;51.38
72370;BME280;60343;-32.030;115.880;2023-04-26T06:36:36;101748.22;;;23.69;52.41
72370;BME280;60343;-32.030;115.880;2023-04-26T06:39:10;101746.59;;;23.91;52.24
72370;BME280;60343;-32.030;115.880;2023-04-26T06:41:45;101740.31;;;24.03;51.55
72370;BME280;60343;-32.030;115.880;2023-04-26T06:44:19;101750.97;;;24.16;51.74
72370;BME280;60343;-32.030;115.880;2023-04-26T06:46:54;101751.47;;;24.24;50.54
72370;BME280;60343;-32.030;115.880;2023-04-26T06:49:29;101761.69;;;23.82;51.18
72370;BME280;60343;-32.030;115.880;2023-04-26T06:52:09;101761.19;;;23.21;53.92
72370;BME280;60343;-32.030;115.880;2023-04-26T06:54:43;101765.13;;;22.95;55.18
72370;BME280;60343;-32.030;115.880;2023-04-26T06:57:18;101768.22;;;23.28;55.04
72370;BME280;60343;-32.030;115.880;2023-04-26T06:59:52;101748.81;;;23.60;53.53
72370;BME280;60343;-32.030;115.880;2023-04-26T07:02:27;101751.25;;;23.38;53.21
72370;BME280;60343;-32.030;115.880;2023-04-26T07:05:02;101755.13;;;23.60;52.45
72370;BME280;60343;-32.030;115.880;2023-04-26T07:07:42;101761.69;;;23.82;52.17
72370;BME280;60343;-32.030;115.880;2023-04-26T07:10:17;101758.34;;;24.15;50.85
72370;BME280;60343;-32.030;115.880;2023-04-26T07:12:52;101766.34;;;23.82;50.49
72370;BME280;60343;-32.030;115.880;2023-04-26T07:15:27;101762.25;;;23.61;51.82
72370;BME280;60343;-32.030;115.880;2023-04-26T07:18:02;101763.69;;;23.52;52.24
72370;BME280;60343;-32.030;115.880;2023-04-26T07:20:37;101765.44;;;23.17;53.26
72370;BME280;60343;-32.030;115.880;2023-04-26T07:23:17;101767.13;;;22.88;54.72
72370;BME280;60343;-32.030;115.880;2023-04-26T07:25:51;101753.41;;;22.76;55.29
72370;BME280;60343;-32.030;115.880;2023-04-26T07:28:27;101760.19;;;22.49;55.91
72370;BME280;60343;-32.030;115.880;2023-04-26T07:31:02;101767.63;;;22.23;56.83
72370;BME280;60343;-32.030;115.880;2023-04-26T07:33:37;101761.69;;;22.08;57.34
72370;BME280;60343;-32.030;115.880;2023-04-26T07:36:11;101763.09;;;21.93;57.84
72370;BME280;60343;-32.030;115.880;2023-04-26T07:38:51;101764.88;;;21.80;57.37
72370;BME280;60343;-32.030;115.880;2023-04-26T07:41:26;101763.75;;;21.63;58.05
72370;BME280;60343;-32.030;115.880;2023-04-26T07:44:00;101761.47;;;21.60;58.55
72370;BME280;60343;-32.030;115.880;2023-04-26T07:46:35;101768.25;;;21.51;59.13
72370;BME280;60343;-32.030;115.880;2023-04-26T07:49:09;101766.09;;;21.60;58.98
72370;BME280;60343;-32.030;115.880;2023-04-26T07:51:44;101762.03;;;21.69;59.17
72370;BME280;60343;-32.030;115.880;2023-04-26T07:54:24;101761.63;;;21.90;58.30
72370;BME280;60343;-32.030;115.880;2023-04-26T07:56:58;101769.03;;;21.83;57.72
72370;BME280;60343;-32.030;115.880;2023-04-26T07:59:33;101764.34;;;21.90;57.74
72370;BME280;60343;-32.030;115.880;2023-04-26T08:02:08;101761.84;;;21.89;57.91
72370;BME280;60343;-32.030;115.880;2023-04-26T08:04:47;101771.16;;;21.81;57.17
72370;BME280;60343;-32.030;115.880;2023-04-26T08:07:24;101765.19;;;21.97;56.64
72370;BME280;60343;-32.030;115.880;2023-04-26T08:10:04;101768.94;;;21.96;56.32
72370;BME280;60343;-32.030;115.880;2023-04-26T08:12:39;101770.31;;;22.05;55.30
72370;BME280;60343;-32.030;115.880;2023-04-26T08:15:13;101771.47;;;21.91;55.42
72370;BME280;60343;-32.030;115.880;2023-04-26T08:17:48;101775.81;;;21.74;54.87
72370;BME280;60343;-32.030;115.880;2023-04-26T08:20:23;101781.03;;;21.51;55.95
72370;BME280;60343;-32.030;115.880;2023-04-26T08:22:59;101772.13;;;21.37;56.48
72370;BME280;60343;-32.030;115.880;2023-04-26T08:25:39;101772.47;;;21.09;57.76
72370;BME280;60343;-32.030;115.880;2023-04-26T08:28:14;101783.38;;;21.03;58.29
72370;BME280;60343;-32.030;115.880;2023-04-26T08:30:48;101771.31;;;20.92;58.56
72370;BME280;60343;-32.030;115.880;2023-04-26T08:33:23;101774.00;;;20.98;58.50
72370;BME280;60343;-32.030;115.880;2023-04-26T08:35:58;101775.88;;;20.98;58.96
72370;BME280;60343;-32.030;115.880;2023-04-26T08:38:34;101777.19;;;20.89;59.49
72370;BME280;60343;-32.030;115.880;2023-04-26T08:41:15;101770.44;;;20.98;58.06
72370;BME280;60343;-32.030;115.880;2023-04-26T08:43:55;101768.06;;;21.08;57.47
72370;BME280;60343;-32.030;115.880;2023-04-26T08:46:36;101774.59;;;21.07;57.30
72370;BME280;60343;-32.030;115.880;2023-04-26T08:49:20;101774.31;;;21.22;56.31
72370;BME280;60343;-32.030;115.880;2023-04-26T08:51:59;101776.50;;;21.00;57.35
72370;BME280;60343;-32.030;115.880;2023-04-26T08:54:36;101778.88;;;20.83;57.70
72370;BME280;60343;-32.030;115.880;2023-04-26T08:57:17;101775.19;;;20.65;58.31
72370;BME280;60343;-32.030;115.880;2023-04-26T08:59:53;101775.19;;;20.65;58.59
72370;BME280;60343;-32.030;115.880;2023-04-26T09:02:32;101785.69;;;20.54;58.58
72370;BME280;60343;-32.030;115.880;2023-04-26T09:05:08;101776.94;;;20.46;58.83
72370;BME280;60343;-32.030;115.880;2023-04-26T09:07:44;101782.81;;;20.36;59.30
72370;BME280;60343;-32.030;115.880;2023-04-26T09:10:20;101782.63;;;20.31;59.73
72370;BME280;60343;-32.030;115.880;2023-04-26T09:13:00;101781.31;;;20.27;60.20
72370;BME280;60343;-32.030;115.880;2023-04-26T09:15:34;101784.06;;;20.14;60.68
72370;BME280;60343;-32.030;115.880;2023-04-26T09:18:18;101775.53;;;20.10;61.34
72370;BME280;60343;-32.030;115.880;2023-04-26T09:21:02;101781.38;;;20.01;61.96
72370;BME280;60343;-32.030;115.880;2023-04-26T09:23:57;101787.63;;;20.08;61.85
72370;BME280;60343;-32.030;115.880;2023-04-26T09:26:33;101782.00;;;20.09;62.01
72370;BME280;60343;-32.030;115.880;2023-04-26T09:29:20;101787.66;;;20.01;62.13
72370;BME280;60343;-32.030;115.880;2023-04-26T09:31:54;101789.53;;;20.01;62.28
72370;BME280;60343;-32.030;115.880;2023-04-26T09:34:29;101787.03;;;19.86;62.98
72370;BME280;60343;-32.030;115.880;2023-04-26T09:37:04;101778.06;;;19.86;63.36
72370;BME280;60343;-32.030;115.880;2023-04-26T09:39:40;101786.22;;;19.86;63.33
72370;BME280;60343;-32.030;115.880;2023-04-26T09:42:16;101789.75;;;19.80;63.44
72370;BME280;60343;-32.030;115.880;2023-04-26T09:45:05;101785.38;;;19.65;63.92
72370;BME280;60343;-32.030;115.880;2023-04-26T09:47:40;101780.97;;;19.51;64.41
72370;BME280;60343;-32.030;115.880;2023-04-26T09:50:17;101790.50;;;19.34;64.99
72370;BME280;60343;-32.030;115.880;2023-04-26T09:52:59;101795.72;;;19.29;65.48
72370;BME280;60343;-32.030;115.880;2023-04-26T09:55:33;101794.84;;;19.22;65.50
72370;BME280;60343;-32.030;115.880;2023-04-26T09:58:10;101800.56;;;19.40;64.55
72370;BME280;60343;-32.030;115.880;2023-04-26T10:00:51;101792.19;;;19.35;64.47
72370;BME280;60343;-32.030;115.880;2023-04-26T10:03:31;101799.41;;;19.08;65.40
72370;BME280;60343;-32.030;115.880;2023-04-26T10:06:10;101802.56;;;19.05;65.39
72370;BME280;60343;-32.030;115.880;2023-04-26T10:08:45;101801.25;;;18.95;65.75
72370;BME280;60343;-32.030;115.880;2023-04-26T10:11:20;101808.28;;;18.82;65.92
72370;BME280;60343;-32.030;115.880;2023-04-26T10:13:59;101814.31;;;18.78;66.40
72370;BME280;60343;-32.030;115.880;2023-04-26T10:16:39;101814.97;;;18.86;66.05
72370;BME280;60343;-32.030;115.880;2023-04-26T10:19:14;101814.94;;;18.73;66.04
72370;BME280;60343;-32.030;115.880;2023-04-26T10:21:51;101822.91;;;18.81;66.43
72370;BME280;60343;-32.030;115.880;2023-04-26T10:24:27;101828.69;;;18.65;66.62
72370;BME280;60343;-32.030;115.880;2023-04-26T10:27:02;101826.88;;;18.51;67.08
72370;BME280;60343;-32.030;115.880;2023-04-26T10:30:06;101818.31;;;18.48;67.69
72370;BME280;60343;-32.030;115.880;2023-04-26T10:36:07;101831.69;;;18.21;68.46
72370;BME280;60343;-32.030;115.880;2023-04-26T10:41:37;101835.03;;;17.95;69.35
72370;BME280;60343;-32.030;115.880;2023-04-26T10:44:37;101839.03;;;17.78;69.57
72370;BME280;60343;-32.030;115.880;2023-04-26T10:47:23;101836.84;;;17.67;70.07
72370;BME280;60343;-32.030;115.880;2023-04-26T10:50:08;101842.88;;;17.48;71.03
72370;BME280;60343;-32.030;115.880;2023-04-26T10:53:11;101844.13;;;17.31;70.98
72370;BME280;60343;-32.030;115.880;2023-04-26T10:55:45;101839.34;;;17.11;72.08
72370;BME280;60343;-32.030;115.880;2023-04-26T10:58:30;101847.47;;;16.97;72.42
72370;BME280;60343;-32.030;115.880;2023-04-26T11:01:05;101853.56;;;16.84;72.55
72370;BME280;60343;-32.030;115.880;2023-04-26T11:03:41;101859.81;;;16.70;73.01
72370;BME280;60343;-32.030;115.880;2023-04-26T11:06:16;101852.31;;;16.57;73.58
72370;BME280;60343;-32.030;115.880;2023-04-26T11:08:59;101865.66;;;16.44;74.45
72370;BME280;60343;-32.030;115.880;2023-04-26T11:11:50;101866.28;;;16.31;75.58
72370;BME280;60343;-32.030;115.880;2023-04-26T11:14:26;101867.56;;;16.21;76.23
72370;BME280;60343;-32.030;115.880;2023-04-26T11:17:03;101874.91;;;16.12;76.19
72370;BME280;60343;-32.030;115.880;2023-04-26T11:19:39;101875.00;;;16.04;76.68
72370;BME280;60343;-32.030;115.880;2023-04-26T11:22:14;101869.63;;;15.96;77.01
72370;BME280;60343;-32.030;115.880;2023-04-26T11:24:54;101872.72;;;15.93;77.24
72370;BME280;60343;-32.030;115.880;2023-04-26T11:27:28;101876.81;;;15.89;77.73
72370;BME280;60343;-32.030;115.880;2023-04-26T11:30:03;101876.81;;;15.89;76.98
72370;BME280;60343;-32.030;115.880;2023-04-26T11:32:38;101878.84;;;15.87;77.30
72370;BME280;60343;-32.030;115.880;2023-04-26T11:35:13;101884.16;;;15.95;77.62
72370;BME280;60343;-32.030;115.880;2023-04-26T11:37:47;101879.59;;;15.96;78.36
72370;BME280;60343;-32.030;115.880;2023-04-26T11:40:30;101895.25;;;16.00;78.63
72370;BME280;60343;-32.030;115.880;2023-04-26T11:43:05;101891.53;;;16.01;78.42
72370;BME280;60343;-32.030;115.880;2023-04-26T11:45:40;101896.94;;;16.01;79.12
72370;BME280;60343;-32.030;115.880;2023-04-26T11:48:15;101896.09;;;16.01;79.01
72370;BME280;60343;-32.030;115.880;2023-04-26T11:50:50;101897.97;;;16.00;78.35
72370;BME280;60343;-32.030;115.880;2023-04-26T11:53:27;101906.72;;;16.02;78.48
72370;BME280;60343;-32.030;115.880;2023-04-26T11:56:22;101901.63;;;16.07;78.83
72370;BME280;60343;-32.030;115.880;2023-04-26T11:58:58;101903.06;;;16.18;79.29
72370;BME280;60343;-32.030;115.880;2023-04-26T12:01:32;101912.59;;;16.28;79.35
72370;BME280;60343;-32.030;115.880;2023-04-26T12:04:09;101904.41;;;16.37;79.56
72370;BME280;60343;-32.030;115.880;2023-04-26T12:06:45;101909.91;;;16.43;79.69
72370;BME280;60343;-32.030;115.880;2023-04-26T12:09:23;101912.72;;;16.50;79.47
72370;BME280;60343;-32.030;115.880;2023-04-26T12:12:04;101919.25;;;16.55;79.78
72370;BME280;60343;-32.030;115.880;2023-04-26T12:14:39;101918.38;;;16.63;79.89
72370;BME280;60343;-32.030;115.880;2023-04-26T12:17:14;101919.66;;;16.67;80.14
72370;BME280;60343;-32.030;115.880;2023-04-26T12:19:49;101918.09;;;16.72;79.27
72370;BME280;60343;-32.030;115.880;2023-04-26T12:22:24;101920.25;;;16.77;79.61
72370;BME280;60343;-32.030;115.880;2023-04-26T12:25:05;101922.56;;;16.80;79.51
72370;BME280;60343;-32.030;115.880;2023-04-26T12:27:45;101931.34;;;16.82;80.11
72370;BME280;60343;-32.030;115.880;2023-04-26T12:30:20;101926.59;;;16.84;80.51
72370;BME280;60343;-32.030;115.880;2023-04-26T12:32:55;101924.53;;;16.86;80.20
72370;BME280;60343;-32.030;115.880;2023-04-26T12:35:29;101929.31;;;16.84;80.63
72370;BME280;60343;-32.030;115.880;2023-04-26T12:38:04;101920.53;;;16.82;81.06
72370;BME280;60343;-32.030;115.880;2023-04-26T12:40:38;101924.97;;;16.75;80.79
72370;BME280;60343;-32.030;115.880;2023-04-26T12:43:19;101930.66;;;16.65;80.83
72370;BME280;60343;-32.030;115.880;2023-04-26T12:45:53;101928.13;;;16.49;80.96
72370;BME280;60343;-32.030;115.880;2023-04-26T12:48:28;101926.19;;;16.35;81.50
72370;BME280;60343;-32.030;115.880;2023-04-26T12:51:03;101926.44;;;16.25;81.87
72370;BME280;60343;-32.030;115.880;2023-04-26T12:53:38;101931.38;;;16.22;82.39
72370;BME280;60343;-32.030;115.880;2023-04-26T12:56:12;101928.50;;;16.23;82.83
72370;BME280;60343;-32.030;115.880;2023-04-26T12:58:54;101939.63;;;16.28;82.89
72370;BME280;60343;-32.030;115.880;2023-04-26T13:01:28;101928.09;;;16.35;83.02
72370;BME280;60343;-32.030;115.880;2023-04-26T13:04:03;101929.00;;;16.42;83.13
72370;BME280;60343;-32.030;115.880;2023-04-26T13:06:37;101928.28;;;16.48;82.83
72370;BME280;60343;-32.030;115.880;2023-04-26T13:09:12;101919.44;;;16.54;82.16
72370;BME280;60343;-32.030;115.880;2023-04-26T13:11:46;101926.16;;;16.58;82.46
72370;BME280;60343;-32.030;115.880;2023-04-26T13:14:26;101930.38;;;16.60;82.52
72370;BME280;60343;-32.030;115.880;2023-04-26T13:17:01;101927.50;;;16.62;81.84